createdAt,value
2018-12-22T00:01:13.310Z,100.00
2018-12-22T00:03:44.328Z,100.00
2018-12-22T00:06:12.703Z,100.00
2018-12-22T00:08:40.897Z,100.00
2018-12-22T00:11:09.032Z,100.00
2018-12-22T00:13:36.752Z,100.00
2018-12-22T00:16:04.927Z,100.00
2018-12-22T00:18:34.503Z,100.00
2018-12-22T00:21:05.253Z,100.00
2018-12-22T00:23:35.432Z,100.00
2018-12-22T00:26:04.039Z,100.00
2018-12-22T00:28:31.891Z,100.00
2018-12-22T00:30:59.561Z,100.00
2018-12-22T00:33:27.394Z,100.00
2018-12-22T00:35:55.176Z,100.00
2018-12-22T00:38:23.038Z,100.00
2018-12-22T00:40:50.849Z,100.00
2018-12-22T00:43:18.722Z,100.00
2018-12-22T00:45:47.235Z,100.00
2018-12-22T00:48:15.322Z,100.00
2018-12-22T00:50:43.087Z,100.00
2018-12-22T00:53:10.724Z,100.00
2018-12-22T00:55:38.448Z,100.00
2018-12-22T00:58:06.126Z,100.00
2018-12-22T01:00:33.636Z,100.00
2018-12-22T01:03:01.603Z,100.00
2018-12-22T01:05:29.540Z,100.00
2018-12-22T01:07:58.595Z,100.00
2018-12-22T01:10:26.254Z,100.00
2018-12-22T01:12:54.072Z,100.00
2018-12-22T01:15:21.859Z,100.00
2018-12-22T01:17:49.600Z,100.00
2018-12-22T01:20:17.688Z,100.00
2018-12-22T01:22:45.481Z,100.00
2018-12-22T01:25:13.019Z,100.00
2018-12-22T01:27:41.229Z,100.00
2018-12-22T01:30:09.066Z,100.00
2018-12-22T01:32:36.845Z,100.00
2018-12-22T01:35:05.687Z,100.00
2018-12-22T01:37:34.224Z,100.00
2018-12-22T01:40:01.810Z,100.00
2018-12-22T01:42:29.665Z,100.00
2018-12-22T01:44:57.269Z,100.00
2018-12-22T01:47:24.991Z,100.00
2018-12-22T01:49:52.553Z,100.00
2018-12-22T01:52:20.282Z,100.00
2018-12-22T01:54:47.882Z,100.00
2018-12-22T01:57:15.427Z,100.00
2018-12-22T01:59:43.111Z,100.00
2018-12-22T02:02:10.779Z,100.00
2018-12-22T02:04:38.405Z,100.00
2018-12-22T02:07:06.601Z,100.00
2018-12-22T02:09:34.587Z,100.00
2018-12-22T02:12:02.734Z,100.00
2018-12-22T02:14:30.992Z,100.00
2018-12-22T02:16:59.047Z,100.00
2018-12-22T02:19:26.890Z,100.00
2018-12-22T02:21:55.287Z,100.00
2018-12-22T02:24:23.807Z,100.00
2018-12-22T02:26:51.715Z,100.00
2018-12-22T02:29:19.725Z,100.00
2018-12-22T02:31:47.361Z,100.00
2018-12-22T02:34:15.152Z,100.00
2018-12-22T02:36:43.305Z,100.00
2018-12-22T02:39:10.863Z,100.00
2018-12-22T02:41:38.508Z,100.00
2018-12-22T02:44:06.257Z,100.00
2018-12-22T02:46:33.806Z,100.00
2018-12-22T02:49:01.366Z,100.00
2018-12-22T02:51:29.019Z,100.00
2018-12-22T02:53:56.612Z,100.00
2018-12-22T02:56:24.221Z,100.00
2018-12-22T02:58:51.896Z,100.00
2018-12-22T03:01:19.546Z,100.00
2018-12-22T03:03:47.127Z,100.00
2018-12-22T03:06:14.807Z,100.00
2018-12-22T03:08:42.521Z,100.00
2018-12-22T03:11:10.099Z,100.00
2018-12-22T03:13:37.744Z,100.00
2018-12-22T03:16:05.507Z,100.00
2018-12-22T03:18:33.114Z,100.00
2018-12-22T03:21:00.717Z,100.00
2018-12-22T03:23:28.293Z,100.00
2018-12-22T03:25:55.837Z,100.00
2018-12-22T03:28:23.353Z,100.00
2018-12-22T03:30:50.856Z,100.00
2018-12-22T03:33:18.375Z,100.00
2018-12-22T03:35:46.043Z,100.00
2018-12-22T03:38:13.884Z,100.00
2018-12-22T03:40:41.420Z,100.00
2018-12-22T03:43:09.131Z,100.00
2018-12-22T03:45:36.760Z,100.00
2018-12-22T03:48:04.554Z,100.00
2018-12-22T03:50:32.553Z,100.00
2018-12-22T03:53:00.792Z,100.00
2018-12-22T03:55:28.351Z,100.00
2018-12-22T03:57:56.087Z,100.00
2018-12-22T04:00:24.377Z,100.00
2018-12-22T04:02:53.065Z,100.00
2018-12-22T04:05:20.920Z,100.00
2018-12-22T04:07:48.861Z,100.00
2018-12-22T04:10:16.638Z,100.00
2018-12-22T04:12:44.478Z,100.00
2018-12-22T04:15:12.364Z,100.00
2018-12-22T04:17:39.915Z,100.00
2018-12-22T04:20:08.024Z,100.00
2018-12-22T04:22:36.120Z,100.00
2018-12-22T04:25:04.357Z,100.00
2018-12-22T04:27:32.453Z,100.00
2018-12-22T04:30:00.223Z,100.00
2018-12-22T04:32:27.948Z,100.00
2018-12-22T04:34:55.721Z,100.00
2018-12-22T04:37:23.323Z,100.00
2018-12-22T04:39:51.609Z,100.00
2018-12-22T04:42:19.145Z,100.00
2018-12-22T04:44:46.700Z,100.00
2018-12-22T04:47:14.233Z,100.00
2018-12-22T04:49:41.905Z,100.00
2018-12-22T04:52:09.559Z,100.00
2018-12-22T04:54:37.217Z,100.00
2018-12-22T04:57:05.015Z,100.00
2018-12-22T04:59:32.538Z,100.00
2018-12-22T05:02:00.585Z,100.00
2018-12-22T05:04:28.262Z,100.00
2018-12-22T05:06:56.033Z,100.00
2018-12-22T05:09:23.619Z,100.00
2018-12-22T05:11:51.385Z,100.00
2018-12-22T05:14:19.081Z,100.00
2018-12-22T05:16:46.703Z,100.00
2018-12-22T05:19:15.607Z,100.00
2018-12-22T05:21:43.233Z,100.00
2018-12-22T05:24:10.831Z,100.00
2018-12-22T05:26:38.381Z,100.00
2018-12-22T05:29:05.945Z,100.00
2018-12-22T05:31:33.503Z,100.00
2018-12-22T05:34:01.029Z,99.40
2018-12-22T05:36:28.637Z,97.83
2018-12-22T05:38:56.365Z,95.33
2018-12-22T05:41:23.980Z,91.55
2018-12-22T05:43:51.709Z,90.94
2018-12-22T05:46:19.337Z,90.52
2018-12-22T05:48:47.040Z,89.10
2018-12-22T05:51:14.581Z,87.20
2018-12-22T05:53:42.621Z,86.24
2018-12-22T05:56:10.251Z,83.45
2018-12-22T05:58:37.815Z,83.46
2018-12-22T06:01:05.434Z,81.87
2018-12-22T06:03:33.852Z,81.77
2018-12-22T06:06:01.666Z,81.36
2018-12-22T06:08:29.590Z,82.09
2018-12-22T06:10:57.234Z,83.04
2018-12-22T06:13:24.765Z,84.39
2018-12-22T06:15:52.269Z,84.60
2018-12-22T06:18:19.828Z,84.06
2018-12-22T06:20:47.456Z,85.62
2018-12-22T06:23:14.982Z,88.71
2018-12-22T06:25:42.703Z,92.50
2018-12-22T06:28:10.355Z,100.00
2018-12-22T06:30:38.171Z,100.00
2018-12-22T06:33:06.009Z,100.00
2018-12-22T06:35:33.574Z,100.00
2018-12-22T06:38:01.359Z,100.00
2018-12-22T06:40:29.049Z,100.00
2018-12-22T06:42:56.703Z,100.00
2018-12-22T06:45:24.374Z,100.00
2018-12-22T06:47:53.672Z,100.00
2018-12-22T06:50:21.664Z,100.00
2018-12-22T06:52:49.566Z,100.00
2018-12-22T06:55:17.291Z,100.00
2018-12-22T06:57:45.126Z,100.00
2018-12-22T07:00:17.656Z,100.00
2018-12-22T07:02:42.738Z,100.00
2018-12-22T07:05:10.292Z,100.00
2018-12-22T07:07:38.057Z,100.00
2018-12-22T07:10:06.923Z,100.00
2018-12-22T07:12:34.585Z,100.00
2018-12-22T07:15:02.491Z,100.00
2018-12-22T07:17:30.351Z,100.00
2018-12-22T07:19:58.307Z,100.00
2018-12-22T07:22:26.030Z,100.00
2018-12-22T07:24:54.437Z,100.00
2018-12-22T07:27:22.086Z,100.00
2018-12-22T07:29:49.920Z,100.00
2018-12-22T07:32:20.476Z,100.00
2018-12-22T07:34:50.035Z,100.00
2018-12-22T07:37:18.656Z,100.00
2018-12-22T07:39:47.766Z,100.00
2018-12-22T07:42:15.735Z,100.00
2018-12-22T07:44:43.354Z,100.00
2018-12-22T07:47:10.944Z,100.00
2018-12-22T07:49:38.628Z,100.00
2018-12-22T07:52:06.209Z,100.00
2018-12-22T07:54:33.761Z,100.00
2018-12-22T07:57:01.343Z,100.00
2018-12-22T07:59:28.982Z,100.00
2018-12-22T08:01:56.882Z,100.00
2018-12-22T08:04:24.942Z,100.00
2018-12-22T08:06:53.104Z,100.00
2018-12-22T08:09:20.735Z,100.00
2018-12-22T08:11:48.664Z,100.00
2018-12-22T08:14:16.373Z,100.00
2018-12-22T08:16:44.043Z,100.00
2018-12-22T08:19:11.779Z,100.00
2018-12-22T08:21:39.311Z,100.00
2018-12-22T08:24:06.969Z,100.00
2018-12-22T08:26:34.573Z,100.00
2018-12-22T08:29:02.292Z,100.00
2018-12-22T08:31:29.821Z,100.00
2018-12-22T08:33:57.401Z,100.00
2018-12-22T08:36:25.251Z,100.00
2018-12-22T08:38:53.159Z,100.00
2018-12-22T08:41:20.908Z,100.00
2018-12-22T08:43:48.468Z,100.00
2018-12-22T08:46:16.010Z,100.00
2018-12-22T08:48:44.041Z,100.00
2018-12-22T08:51:11.903Z,100.00
2018-12-22T08:53:39.485Z,100.00
2018-12-22T08:56:07.088Z,100.00
2018-12-22T08:58:34.723Z,100.00
2018-12-22T09:01:02.340Z,100.00
2018-12-22T09:03:30.017Z,100.00
2018-12-22T09:05:58.697Z,100.00
2018-12-22T09:08:26.405Z,100.00
2018-12-22T09:10:54.070Z,100.00
2018-12-22T09:13:21.621Z,100.00
2018-12-22T09:15:49.261Z,100.00
2018-12-22T09:18:16.823Z,100.00
2018-12-22T09:20:44.468Z,100.00
2018-12-22T09:23:12.075Z,100.00
2018-12-22T09:25:39.770Z,100.00
2018-12-22T09:28:07.313Z,100.00
2018-12-22T09:30:34.972Z,100.00
2018-12-22T09:33:02.614Z,100.00
2018-12-22T09:35:30.148Z,100.00
2018-12-22T09:37:57.674Z,100.00
2018-12-22T09:40:25.460Z,100.00
2018-12-22T09:42:53.060Z,100.00
2018-12-22T09:45:20.601Z,100.00
2018-12-22T09:47:48.242Z,100.00
2018-12-22T09:50:15.805Z,100.00
2018-12-22T09:52:43.646Z,100.00
2018-12-22T09:55:11.181Z,100.00
2018-12-22T09:57:38.780Z,100.00
2018-12-22T10:00:07.806Z,100.00
2018-12-22T10:02:35.457Z,100.00
2018-12-22T10:05:03.315Z,100.00
2018-12-22T10:07:30.932Z,100.00
2018-12-22T10:09:58.568Z,100.00
2018-12-22T10:12:26.348Z,100.00
2018-12-22T10:14:54.123Z,100.00
2018-12-22T10:17:21.633Z,100.00
2018-12-22T10:19:49.235Z,100.00
2018-12-22T10:22:16.890Z,100.00
2018-12-22T10:24:44.509Z,100.00
2018-12-22T10:27:12.450Z,100.00
2018-12-22T10:29:40.041Z,100.00
2018-12-22T10:32:08.008Z,100.00
2018-12-22T10:34:35.603Z,100.00
2018-12-22T10:37:03.320Z,100.00
2018-12-22T10:39:31.312Z,99.84
2018-12-22T10:41:58.937Z,97.62
2018-12-22T10:44:26.804Z,96.76
2018-12-22T10:46:54.518Z,97.73
2018-12-22T10:49:22.085Z,94.86
2018-12-22T10:51:49.705Z,92.59
2018-12-22T10:54:17.313Z,92.84
2018-12-22T10:56:45.089Z,91.45
2018-12-22T10:59:12.825Z,90.87
2018-12-22T11:01:40.409Z,89.84
2018-12-22T11:04:08.958Z,91.12
2018-12-22T11:06:36.806Z,91.88
2018-12-22T11:09:06.172Z,95.35
2018-12-22T11:11:34.006Z,100.00
2018-12-22T11:14:01.689Z,100.00
2018-12-22T11:16:29.411Z,100.00
2018-12-22T11:18:57.314Z,100.00
2018-12-22T11:21:25.021Z,100.00
2018-12-22T11:23:52.606Z,100.00
2018-12-22T11:26:20.492Z,100.00
2018-12-22T11:28:48.328Z,100.00
2018-12-22T11:31:16.173Z,100.00
2018-12-22T11:33:46.349Z,100.00
2018-12-22T11:36:14.020Z,100.00
2018-12-22T11:38:41.842Z,100.00
2018-12-22T11:41:09.519Z,100.00
2018-12-22T11:43:37.166Z,100.00
2018-12-22T11:46:04.716Z,100.00
2018-12-22T11:49:35.574Z,100.00
2018-12-22T11:52:03.240Z,100.00
2018-12-22T11:54:31.020Z,100.00
2018-12-22T11:56:59.281Z,100.00
2018-12-22T11:59:26.974Z,100.00
2018-12-22T12:01:54.921Z,100.00
2018-12-22T12:04:22.519Z,100.00
2018-12-22T12:06:50.144Z,100.00
2018-12-22T12:09:17.766Z,100.00
2018-12-22T12:11:45.882Z,100.00
2018-12-22T12:14:13.387Z,100.00
2018-12-22T12:17:25.035Z,100.00
2018-12-22T12:19:53.094Z,100.00
2018-12-22T12:22:20.790Z,100.00
2018-12-22T12:24:48.452Z,100.00
2018-12-22T12:27:16.044Z,100.00
2018-12-22T12:29:43.761Z,100.00
2018-12-22T12:32:11.301Z,100.00
2018-12-22T12:34:38.897Z,100.00
2018-12-22T12:37:06.540Z,98.42
2018-12-22T12:39:34.099Z,93.24
2018-12-22T12:42:19.381Z,85.93
2018-12-22T12:44:58.485Z,76.21
2018-12-22T12:47:26.381Z,75.87
2018-12-22T12:49:54.033Z,70.88
2018-12-22T12:52:21.661Z,70.76
2018-12-22T12:54:49.244Z,74.37
2018-12-22T12:57:17.135Z,78.72
2018-12-22T12:59:44.779Z,81.80
2018-12-22T13:02:12.973Z,86.48
2018-12-22T13:04:40.737Z,88.38
2018-12-22T13:07:08.770Z,90.18
2018-12-22T13:09:36.331Z,90.66
2018-12-22T13:12:06.674Z,90.60
2018-12-22T13:14:34.261Z,94.01
2018-12-22T13:17:01.896Z,95.57
2018-12-22T13:19:29.484Z,99.36
2018-12-22T13:21:57.136Z,100.00
2018-12-22T13:24:24.680Z,100.00
2018-12-22T13:26:52.393Z,100.00
2018-12-22T13:29:19.990Z,100.00
2018-12-22T13:31:47.632Z,100.00
2018-12-22T13:34:15.341Z,100.00
2018-12-22T13:36:42.934Z,100.00
2018-12-22T13:39:12.002Z,100.00
2018-12-22T13:41:39.618Z,100.00
2018-12-22T13:44:07.353Z,100.00
2018-12-22T13:46:35.149Z,100.00
2018-12-22T13:49:02.982Z,100.00
2018-12-22T13:51:30.719Z,100.00
2018-12-22T13:53:58.386Z,100.00
2018-12-22T13:56:26.044Z,100.00
2018-12-22T13:58:53.965Z,100.00
2018-12-22T14:01:22.394Z,100.00
2018-12-22T14:03:50.713Z,100.00
2018-12-22T14:06:35.931Z,100.00
2018-12-22T14:09:06.840Z,100.00
2018-12-22T14:11:34.621Z,100.00
2018-12-22T14:14:02.185Z,100.00
2018-12-22T14:16:32.333Z,100.00
2018-12-22T14:19:02.968Z,99.93
2018-12-22T14:21:30.589Z,97.80
2018-12-22T14:24:01.224Z,92.71
2018-12-22T14:26:30.013Z,90.41
2018-12-22T14:28:57.821Z,90.04
2018-12-22T14:31:25.492Z,92.36
2018-12-22T14:33:54.946Z,93.55
2018-12-22T14:36:22.501Z,93.53
2018-12-22T14:38:50.021Z,92.71
2018-12-22T14:41:17.567Z,93.12
2018-12-22T14:43:45.111Z,92.04
2018-12-22T14:46:12.676Z,89.54
2018-12-22T14:48:40.193Z,89.60
2018-12-22T14:51:07.810Z,89.11
2018-12-22T14:53:35.551Z,87.25
2018-12-22T14:56:03.313Z,87.70
2018-12-22T14:58:32.179Z,87.58
2018-12-22T15:00:59.853Z,87.95
2018-12-22T15:03:27.596Z,88.03
2018-12-22T15:05:56.314Z,89.03
2018-12-22T15:08:23.976Z,90.24
2018-12-22T15:10:51.519Z,90.96
2018-12-22T15:13:19.400Z,91.89
2018-12-22T15:15:47.271Z,92.47
2018-12-22T15:18:14.799Z,91.42
2018-12-22T15:20:42.395Z,91.73
2018-12-22T15:23:11.022Z,91.21
2018-12-22T15:25:38.595Z,90.96
2018-12-22T15:28:06.408Z,90.19
2018-12-22T15:30:34.040Z,91.38
2018-12-22T15:33:01.854Z,92.53
2018-12-22T15:35:29.705Z,93.01
2018-12-22T15:37:58.636Z,95.30
2018-12-22T15:40:26.460Z,99.02
2018-12-22T15:42:54.306Z,100.00
2018-12-22T15:45:21.925Z,100.00
2018-12-22T15:47:49.508Z,100.00
2018-12-22T15:50:18.668Z,100.00
2018-12-22T15:52:46.570Z,100.00
2018-12-22T15:55:14.114Z,100.00
2018-12-22T15:57:41.806Z,100.00
2018-12-22T16:00:10.417Z,100.00
2018-12-22T16:02:38.183Z,100.00
2018-12-22T16:05:06.713Z,100.00
2018-12-22T16:07:34.313Z,100.00
2018-12-22T16:10:02.120Z,100.00
